sensor_id;sensor_type;location;lat;lon;timestamp;temperature;humidity
12870;DHT22;6503;48.572;13.460;2022-11-06T00:02:08;7.40;99.90
12870;DHT22;6503;48.572;13.460;2022-11-06T00:04:35;7.40;99.90
12870;DHT22;6503;48.572;13.460;2022-11-06T00:07:02;7.50;99.90
12870;DHT22;6503;48.572;13.460;2022-11-06T00:09:28;7.50;99.90
12870;DHT22;6503;48.572;13.460;2022-11-06T00:11:55;7.50;99.90
12870;DHT22;6503;48.572;13.460;2022-11-06T00:14:23;7.50;99.90
12870;DHT22;6503;48.572;13.460;2022-11-06T00:16:50;7.50;99.90
12870;DHT22;6503;48.572;13.460;2022-11-06T00:19:17;7.50;99.90
12870;DHT22;6503;48.572;13.460;2022-11-06T00:21:44;7.50;99.90
12870;DHT22;6503;48.572;13.460;2022-11-06T00:24:13;7.50;99.90
12870;DHT22;6503;48.572;13.460;2022-11-06T00:26:40;7.50;99.90
12870;DHT22;6503;48.572;13.460;2022-11-06T00:29:11;7.50;99.90
12870;DHT22;6503;48.572;13.460;2022-11-06T00:31:41;7.50;99.90
12870;DHT22;6503;48.572;13.460;2022-11-06T00:34:09;7.50;99.90
12870;DHT22;6503;48.572;13.460;2022-11-06T00:36:36;7.60;99.90
12870;DHT22;6503;48.572;13.460;2022-11-06T00:39:04;7.60;99.90
12870;DHT22;6503;48.572;13.460;2022-11-06T00:41:30;7.50;99.90
12870;DHT22;6503;48.572;13.460;2022-11-06T00:44:00;7.50;99.90
12870;DHT22;6503;48.572;13.460;2022-11-06T00:46:27;7.40;99.90
12870;DHT22;6503;48.572;13.460;2022-11-06T00:48:56;7.40;99.90
12870;DHT22;6503;48.572;13.460;2022-11-06T00:51:26;7.40;99.90
12870;DHT22;6503;48.572;13.460;2022-11-06T00:53:55;7.30;99.90
12870;DHT22;6503;48.572;13.460;2022-11-06T00:56:22;7.40;99.90
12870;DHT22;6503;48.572;13.460;2022-11-06T00:58:49;7.40;99.90
12870;DHT22;6503;48.572;13.460;2022-11-06T01:01:19;7.50;99.90
12870;DHT22;6503;48.572;13.460;2022-11-06T01:03:51;7.50;99.90
12870;DHT22;6503;48.572;13.460;2022-11-06T01:06:21;7.50;99.90
12870;DHT22;6503;48.572;13.460;2022-11-06T01:08:50;7.50;99.90
12870;DHT22;6503;48.572;13.460;2022-11-06T01:11:19;7.60;99.90
12870;DHT22;6503;48.572;13.460;2022-11-06T01:13:49;7.50;99.90
12870;DHT22;6503;48.572;13.460;2022-11-06T01:16:17;7.50;99.90
12870;DHT22;6503;48.572;13.460;2022-11-06T01:18:44;7.50;99.90
12870;DHT22;6503;48.572;13.460;2022-11-06T01:21:15;7.50;99.90
12870;DHT22;6503;48.572;13.460;2022-11-06T01:23:46;7.50;99.90
12870;DHT22;6503;48.572;13.460;2022-11-06T01:26:14;7.50;99.90
12870;DHT22;6503;48.572;13.460;2022-11-06T01:28:40;7.40;99.90
12870;DHT22;6503;48.572;13.460;2022-11-06T01:31:10;7.40;99.90
12870;DHT22;6503;48.572;13.460;2022-11-06T01:33:37;7.40;99.90
12870;DHT22;6503;48.572;13.460;2022-11-06T01:36:07;7.40;99.90
12870;DHT22;6503;48.572;13.460;2022-11-06T01:38:34;7.40;99.90
12870;DHT22;6503;48.572;13.460;2022-11-06T01:41:02;7.50;99.90
12870;DHT22;6503;48.572;13.460;2022-11-06T01:43:44;7.50;99.90
12870;DHT22;6503;48.572;13.460;2022-11-06T01:46:11;7.50;99.90
12870;DHT22;6503;48.572;13.460;2022-11-06T01:48:40;7.40;99.90
12870;DHT22;6503;48.572;13.460;2022-11-06T01:51:08;7.50;99.90
12870;DHT22;6503;48.572;13.460;2022-11-06T01:53:36;7.40;99.90
12870;DHT22;6503;48.572;13.460;2022-11-06T01:56:08;7.40;99.90
12870;DHT22;6503;48.572;13.460;2022-11-06T01:58:35;7.30;99.90
12870;DHT22;6503;48.572;13.460;2022-11-06T02:01:03;7.30;99.90
12870;DHT22;6503;48.572;13.460;2022-11-06T02:03:30;7.30;99.90
12870;DHT22;6503;48.572;13.460;2022-11-06T02:05:57;7.20;99.90
12870;DHT22;6503;48.572;13.460;2022-11-06T02:08:24;7.20;99.90
12870;DHT22;6503;48.572;13.460;2022-11-06T02:10:52;7.20;99.90
12870;DHT22;6503;48.572;13.460;2022-11-06T02:13:31;7.20;99.90
12870;DHT22;6503;48.572;13.460;2022-11-06T02:16:06;7.20;99.90
12870;DHT22;6503;48.572;13.460;2022-11-06T02:19:11;7.30;99.90
12870;DHT22;6503;48.572;13.460;2022-11-06T02:21:58;7.30;99.90
12870;DHT22;6503;48.572;13.460;2022-11-06T02:24:46;7.40;99.90
12870;DHT22;6503;48.572;13.460;2022-11-06T02:27:17;7.40;99.90
12870;DHT22;6503;48.572;13.460;2022-11-06T02:29:51;7.40;99.90
12870;DHT22;6503;48.572;13.460;2022-11-06T02:32:24;7.50;99.90
12870;DHT22;6503;48.572;13.460;2022-11-06T02:34:52;7.50;99.90
12870;DHT22;6503;48.572;13.460;2022-11-06T02:37:25;7.50;99.90
12870;DHT22;6503;48.572;13.460;2022-11-06T02:39:56;7.60;99.90
12870;DHT22;6503;48.572;13.460;2022-11-06T02:42:27;7.60;99.90
12870;DHT22;6503;48.572;13.460;2022-11-06T02:44:56;7.60;99.90
12870;DHT22;6503;48.572;13.460;2022-11-06T02:47:24;7.60;99.90
12870;DHT22;6503;48.572;13.460;2022-11-06T02:49:55;7.70;99.90
12870;DHT22;6503;48.572;13.460;2022-11-06T02:52:26;7.60;99.90
12870;DHT22;6503;48.572;13.460;2022-11-06T02:55:02;7.60;99.90
12870;DHT22;6503;48.572;13.460;2022-11-06T02:57:34;7.70;99.90
12870;DHT22;6503;48.572;13.460;2022-11-06T03:00:05;7.70;99.90
12870;DHT22;6503;48.572;13.460;2022-11-06T03:02:35;7.70;99.90
12870;DHT22;6503;48.572;13.460;2022-11-06T03:05:08;7.70;99.90
12870;DHT22;6503;48.572;13.460;2022-11-06T03:07:38;7.70;99.90
12870;DHT22;6503;48.572;13.460;2022-11-06T03:10:06;7.70;99.90
12870;DHT22;6503;48.572;13.460;2022-11-06T03:12:42;7.60;99.90
12870;DHT22;6503;48.572;13.460;2022-11-06T03:15:17;7.70;99.90
12870;DHT22;6503;48.572;13.460;2022-11-06T03:17:48;7.70;99.90
12870;DHT22;6503;48.572;13.460;2022-11-06T03:20:20;7.60;99.90
12870;DHT22;6503;48.572;13.460;2022-11-06T03:22:53;7.60;99.90
12870;DHT22;6503;48.572;13.460;2022-11-06T03:25:22;7.60;99.90
12870;DHT22;6503;48.572;13.460;2022-11-06T03:27:59;7.50;99.90
12870;DHT22;6503;48.572;13.460;2022-11-06T03:30:27;7.50;99.90
12870;DHT22;6503;48.572;13.460;2022-11-06T03:32:58;7.50;99.90
12870;DHT22;6503;48.572;13.460;2022-11-06T03:35:30;7.50;99.90
12870;DHT22;6503;48.572;13.460;2022-11-06T03:38:02;7.50;99.90
12870;DHT22;6503;48.572;13.460;2022-11-06T03:40:36;7.50;99.90
12870;DHT22;6503;48.572;13.460;2022-11-06T03:43:07;7.50;99.90
12870;DHT22;6503;48.572;13.460;2022-11-06T03:45:36;7.60;99.90
12870;DHT22;6503;48.572;13.460;2022-11-06T03:48:09;7.60;99.90
12870;DHT22;6503;48.572;13.460;2022-11-06T03:50:37;7.50;99.90
12870;DHT22;6503;48.572;13.460;2022-11-06T03:53:08;7.60;99.90
12870;DHT22;6503;48.572;13.460;2022-11-06T03:55:41;7.60;99.90
12870;DHT22;6503;48.572;13.460;2022-11-06T03:58:12;7.60;99.90
12870;DHT22;6503;48.572;13.460;2022-11-06T04:00:44;7.70;99.90
12870;DHT22;6503;48.572;13.460;2022-11-06T04:03:38;7.70;99.90
12870;DHT22;6503;48.572;13.460;2022-11-06T04:06:11;7.70;99.90
12870;DHT22;6503;48.572;13.460;2022-11-06T04:08:40;7.70;99.90
12870;DHT22;6503;48.572;13.460;2022-11-06T04:11:27;7.80;99.90
12870;DHT22;6503;48.572;13.460;2022-11-06T04:14:15;7.70;99.90
12870;DHT22;6503;48.572;13.460;2022-11-06T04:16:47;7.70;99.90
12870;DHT22;6503;48.572;13.460;2022-11-06T04:19:16;7.60;99.90
12870;DHT22;6503;48.572;13.460;2022-11-06T04:22:05;7.60;99.90
12870;DHT22;6503;48.572;13.460;2022-11-06T04:24:44;7.60;99.90
12870;DHT22;6503;48.572;13.460;2022-11-06T04:27:47;7.60;99.90
12870;DHT22;6503;48.572;13.460;2022-11-06T04:30:17;7.60;99.90
12870;DHT22;6503;48.572;13.460;2022-11-06T04:32:56;7.60;99.90
12870;DHT22;6503;48.572;13.460;2022-11-06T04:35:29;7.60;99.90
12870;DHT22;6503;48.572;13.460;2022-11-06T04:38:02;7.60;99.90
12870;DHT22;6503;48.572;13.460;2022-11-06T04:40:36;7.50;99.90
12870;DHT22;6503;48.572;13.460;2022-11-06T04:43:14;7.50;99.90
12870;DHT22;6503;48.572;13.460;2022-11-06T04:45:47;7.60;99.90
12870;DHT22;6503;48.572;13.460;2022-11-06T04:48:16;7.50;99.90
12870;DHT22;6503;48.572;13.460;2022-11-06T04:50:47;7.60;99.90
12870;DHT22;6503;48.572;13.460;2022-11-06T04:53:15;7.70;99.90
12870;DHT22;6503;48.572;13.460;2022-11-06T04:55:45;7.60;99.90
12870;DHT22;6503;48.572;13.460;2022-11-06T04:58:13;7.60;99.90
12870;DHT22;6503;48.572;13.460;2022-11-06T05:00:46;7.60;99.90
12870;DHT22;6503;48.572;13.460;2022-11-06T05:03:13;7.60;99.90
12870;DHT22;6503;48.572;13.460;2022-11-06T05:05:41;7.60;99.90
12870;DHT22;6503;48.572;13.460;2022-11-06T05:08:12;7.70;99.90
12870;DHT22;6503;48.572;13.460;2022-11-06T05:10:39;7.70;99.90
12870;DHT22;6503;48.572;13.460;2022-11-06T05:13:06;7.70;99.90
12870;DHT22;6503;48.572;13.460;2022-11-06T05:15:33;7.70;99.90
12870;DHT22;6503;48.572;13.460;2022-11-06T05:18:01;7.70;99.90
12870;DHT22;6503;48.572;13.460;2022-11-06T05:20:27;7.70;99.90
12870;DHT22;6503;48.572;13.460;2022-11-06T05:22:54;7.80;99.90
12870;DHT22;6503;48.572;13.460;2022-11-06T05:25:25;7.70;99.90
12870;DHT22;6503;48.572;13.460;2022-11-06T05:27:52;7.80;99.90
12870;DHT22;6503;48.572;13.460;2022-11-06T05:30:19;7.70;99.90
12870;DHT22;6503;48.572;13.460;2022-11-06T05:32:46;7.70;99.90
12870;DHT22;6503;48.572;13.460;2022-11-06T05:35:15;7.60;99.90
12870;DHT22;6503;48.572;13.460;2022-11-06T05:37:41;7.70;99.90
12870;DHT22;6503;48.572;13.460;2022-11-06T05:40:09;7.70;99.90
12870;DHT22;6503;48.572;13.460;2022-11-06T05:42:37;7.60;99.90
12870;DHT22;6503;48.572;13.460;2022-11-06T05:45:05;7.60;99.90
12870;DHT22;6503;48.572;13.460;2022-11-06T05:47:32;7.60;99.90
12870;DHT22;6503;48.572;13.460;2022-11-06T05:49:59;7.70;99.90
12870;DHT22;6503;48.572;13.460;2022-11-06T05:52:28;7.70;99.90
12870;DHT22;6503;48.572;13.460;2022-11-06T05:54:55;7.70;99.90
12870;DHT22;6503;48.572;13.460;2022-11-06T05:57:22;7.70;99.90
12870;DHT22;6503;48.572;13.460;2022-11-06T05:59:48;7.70;99.90
12870;DHT22;6503;48.572;13.460;2022-11-06T06:02:15;7.70;99.90
12870;DHT22;6503;48.572;13.460;2022-11-06T06:04:42;7.70;99.90
12870;DHT22;6503;48.572;13.460;2022-11-06T06:07:09;7.70;99.90
12870;DHT22;6503;48.572;13.460;2022-11-06T06:09:37;7.70;99.90
12870;DHT22;6503;48.572;13.460;2022-11-06T06:12:05;7.70;99.90
12870;DHT22;6503;48.572;13.460;2022-11-06T06:14:32;7.80;99.90
12870;DHT22;6503;48.572;13.460;2022-11-06T06:16:59;7.80;99.90
12870;DHT22;6503;48.572;13.460;2022-11-06T06:19:26;7.80;99.90
12870;DHT22;6503;48.572;13.460;2022-11-06T06:21:53;7.80;99.90
12870;DHT22;6503;48.572;13.460;2022-11-06T06:24:20;7.80;99.90
12870;DHT22;6503;48.572;13.460;2022-11-06T06:26:48;7.90;99.90
12870;DHT22;6503;48.572;13.460;2022-11-06T06:29:15;7.90;99.90
12870;DHT22;6503;48.572;13.460;2022-11-06T06:31:42;7.90;99.90
12870;DHT22;6503;48.572;13.460;2022-11-06T06:34:08;7.90;99.90
12870;DHT22;6503;48.572;13.460;2022-11-06T06:36:35;7.90;99.90
12870;DHT22;6503;48.572;13.460;2022-11-06T06:39:02;7.90;99.90
12870;DHT22;6503;48.572;13.460;2022-11-06T06:41:29;7.90;99.90
12870;DHT22;6503;48.572;13.460;2022-11-06T06:43:59;7.90;99.90
12870;DHT22;6503;48.572;13.460;2022-11-06T06:46:25;7.90;99.90
12870;DHT22;6503;48.572;13.460;2022-11-06T06:48:52;7.90;99.90
12870;DHT22;6503;48.572;13.460;2022-11-06T06:51:19;7.90;99.90
12870;DHT22;6503;48.572;13.460;2022-11-06T06:53:46;7.90;99.90
12870;DHT22;6503;48.572;13.460;2022-11-06T06:56:12;7.90;99.90
12870;DHT22;6503;48.572;13.460;2022-11-06T06:58:40;7.90;99.90
12870;DHT22;6503;48.572;13.460;2022-11-06T07:01:09;7.90;99.90
12870;DHT22;6503;48.572;13.460;2022-11-06T07:03:36;7.80;99.90
12870;DHT22;6503;48.572;13.460;2022-11-06T07:06:04;7.70;99.90
12870;DHT22;6503;48.572;13.460;2022-11-06T07:08:31;7.70;99.90
12870;DHT22;6503;48.572;13.460;2022-11-06T07:10:59;7.80;99.90
12870;DHT22;6503;48.572;13.460;2022-11-06T07:13:26;7.90;99.90
12870;DHT22;6503;48.572;13.460;2022-11-06T07:15:52;7.90;99.90
12870;DHT22;6503;48.572;13.460;2022-11-06T07:18:22;7.90;99.90
12870;DHT22;6503;48.572;13.460;2022-11-06T07:20:49;8.00;99.90
12870;DHT22;6503;48.572;13.460;2022-11-06T07:23:16;8.00;99.90
12870;DHT22;6503;48.572;13.460;2022-11-06T07:25:43;8.10;99.90
12870;DHT22;6503;48.572;13.460;2022-11-06T07:28:09;8.10;99.90
12870;DHT22;6503;48.572;13.460;2022-11-06T07:30:36;8.10;99.90
12870;DHT22;6503;48.572;13.460;2022-11-06T07:33:04;8.00;99.90
12870;DHT22;6503;48.572;13.460;2022-11-06T07:35:34;8.10;99.90
12870;DHT22;6503;48.572;13.460;2022-11-06T07:38:02;8.20;99.90
12870;DHT22;6503;48.572;13.460;2022-11-06T07:40:30;8.30;99.90
12870;DHT22;6503;48.572;13.460;2022-11-06T07:43:02;8.40;99.90
12870;DHT22;6503;48.572;13.460;2022-11-06T07:45:29;8.50;99.90
12870;DHT22;6503;48.572;13.460;2022-11-06T07:47:55;8.50;99.90
12870;DHT22;6503;48.572;13.460;2022-11-06T07:50:22;8.50;99.90
12870;DHT22;6503;48.572;13.460;2022-11-06T07:52:50;8.60;99.90
12870;DHT22;6503;48.572;13.460;2022-11-06T07:55:19;8.60;99.90
12870;DHT22;6503;48.572;13.460;2022-11-06T07:57:46;8.70;99.90
12870;DHT22;6503;48.572;13.460;2022-11-06T08:00:14;8.70;99.90
12870;DHT22;6503;48.572;13.460;2022-11-06T08:02:41;8.80;99.90
12870;DHT22;6503;48.572;13.460;2022-11-06T08:05:07;8.80;99.90
12870;DHT22;6503;48.572;13.460;2022-11-06T08:07:36;8.80;99.90
12870;DHT22;6503;48.572;13.460;2022-11-06T08:10:05;8.80;99.90
12870;DHT22;6503;48.572;13.460;2022-11-06T08:12:33;8.70;99.90
12870;DHT22;6503;48.572;13.460;2022-11-06T08:15:00;8.70;99.90
12870;DHT22;6503;48.572;13.460;2022-11-06T08:17:26;8.60;99.90
12870;DHT22;6503;48.572;13.460;2022-11-06T08:19:54;8.60;99.90
12870;DHT22;6503;48.572;13.460;2022-11-06T08:22:21;8.60;99.90
12870;DHT22;6503;48.572;13.460;2022-11-06T08:24:48;8.70;99.90
12870;DHT22;6503;48.572;13.460;2022-11-06T08:27:18;8.80;99.90
12870;DHT22;6503;48.572;13.460;2022-11-06T08:29:44;9.00;99.90
12870;DHT22;6503;48.572;13.460;2022-11-06T08:32:11;9.10;99.90
12870;DHT22;6503;48.572;13.460;2022-11-06T08:34:38;9.20;99.90
12870;DHT22;6503;48.572;13.460;2022-11-06T08:37:07;9.30;99.90
12870;DHT22;6503;48.572;13.460;2022-11-06T08:39:36;9.40;99.90
12870;DHT22;6503;48.572;13.460;2022-11-06T08:42:03;9.50;99.90
12870;DHT22;6503;48.572;13.460;2022-11-06T08:44:33;9.50;99.90
12870;DHT22;6503;48.572;13.460;2022-11-06T08:47:00;9.60;99.90
12870;DHT22;6503;48.572;13.460;2022-11-06T08:49:27;9.60;99.90
12870;DHT22;6503;48.572;13.460;2022-11-06T08:51:53;9.70;99.90
12870;DHT22;6503;48.572;13.460;2022-11-06T08:54:20;9.70;99.90
12870;DHT22;6503;48.572;13.460;2022-11-06T08:56:48;9.80;99.90
12870;DHT22;6503;48.572;13.460;2022-11-06T08:59:16;9.90;99.90
12870;DHT22;6503;48.572;13.460;2022-11-06T09:01:44;10.10;99.90
12870;DHT22;6503;48.572;13.460;2022-11-06T09:04:11;10.10;99.90
12870;DHT22;6503;48.572;13.460;2022-11-06T09:06:37;10.20;99.90
12870;DHT22;6503;48.572;13.460;2022-11-06T09:09:04;10.30;99.90
12870;DHT22;6503;48.572;13.460;2022-11-06T09:11:31;10.40;99.90
12870;DHT22;6503;48.572;13.460;2022-11-06T09:13:58;10.30;99.90
12870;DHT22;6503;48.572;13.460;2022-11-06T09:16:25;10.20;99.90
12870;DHT22;6503;48.572;13.460;2022-11-06T09:18:54;10.20;99.90
12870;DHT22;6503;48.572;13.460;2022-11-06T09:21:21;10.10;99.90
12870;DHT22;6503;48.572;13.460;2022-11-06T09:23:48;10.10;99.90
12870;DHT22;6503;48.572;13.460;2022-11-06T09:26:16;10.10;99.90
12870;DHT22;6503;48.572;13.460;2022-11-06T09:28:43;10.20;99.90
12870;DHT22;6503;48.572;13.460;2022-11-06T09:31:11;10.30;99.90
12870;DHT22;6503;48.572;13.460;2022-11-06T09:33:38;10.30;99.90
12870;DHT22;6503;48.572;13.460;2022-11-06T09:36:07;10.30;99.90
12870;DHT22;6503;48.572;13.460;2022-11-06T09:38:34;10.40;99.90
12870;DHT22;6503;48.572;13.460;2022-11-06T09:41:01;10.70;99.90
12870;DHT22;6503;48.572;13.460;2022-11-06T09:43:50;10.80;99.90
12870;DHT22;6503;48.572;13.460;2022-11-06T09:46:24;10.80;99.90
12870;DHT22;6503;48.572;13.460;2022-11-06T09:48:55;10.80;99.90
12870;DHT22;6503;48.572;13.460;2022-11-06T09:51:31;10.80;99.90
12870;DHT22;6503;48.572;13.460;2022-11-06T09:54:02;10.70;99.90
12870;DHT22;6503;48.572;13.460;2022-11-06T09:56:33;10.70;99.90
12870;DHT22;6503;48.572;13.460;2022-11-06T09:59:04;10.50;99.90
12870;DHT22;6503;48.572;13.460;2022-11-06T10:01:39;10.40;99.90
12870;DHT22;6503;48.572;13.460;2022-11-06T10:04:17;10.50;99.90
12870;DHT22;6503;48.572;13.460;2022-11-06T10:06:47;10.60;99.90
12870;DHT22;6503;48.572;13.460;2022-11-06T10:09:14;10.80;99.90
12870;DHT22;6503;48.572;13.460;2022-11-06T10:11:52;10.90;99.90
12870;DHT22;6503;48.572;13.460;2022-11-06T10:14:30;10.90;99.90
12870;DHT22;6503;48.572;13.460;2022-11-06T10:17:09;10.90;99.90
12870;DHT22;6503;48.572;13.460;2022-11-06T10:19:43;10.90;99.90
12870;DHT22;6503;48.572;13.460;2022-11-06T10:22:21;11.00;99.90
12870;DHT22;6503;48.572;13.460;2022-11-06T10:24:56;11.20;99.90
12870;DHT22;6503;48.572;13.460;2022-11-06T10:27:31;11.40;99.90
12870;DHT22;6503;48.572;13.460;2022-11-06T10:30:05;11.50;99.90
12870;DHT22;6503;48.572;13.460;2022-11-06T10:32:54;11.60;99.90
12870;DHT22;6503;48.572;13.460;2022-11-06T10:35:30;11.90;99.90
12870;DHT22;6503;48.572;13.460;2022-11-06T10:38:06;12.30;99.90
12870;DHT22;6503;48.572;13.460;2022-11-06T10:40:37;12.50;99.90
12870;DHT22;6503;48.572;13.460;2022-11-06T10:43:11;12.60;99.90
12870;DHT22;6503;48.572;13.460;2022-11-06T10:45:47;12.60;99.90
12870;DHT22;6503;48.572;13.460;2022-11-06T10:48:22;12.70;99.90
12870;DHT22;6503;48.572;13.460;2022-11-06T10:50:55;12.70;99.90
12870;DHT22;6503;48.572;13.460;2022-11-06T10:53:33;12.60;99.90
12870;DHT22;6503;48.572;13.460;2022-11-06T10:56:17;12.50;99.90
12870;DHT22;6503;48.572;13.460;2022-11-06T10:58:46;12.40;99.90
12870;DHT22;6503;48.572;13.460;2022-11-06T11:01:13;12.50;99.90
12870;DHT22;6503;48.572;13.460;2022-11-06T11:03:42;12.60;99.90
12870;DHT22;6503;48.572;13.460;2022-11-06T11:06:09;12.60;99.90
12870;DHT22;6503;48.572;13.460;2022-11-06T11:08:39;12.80;99.90
12870;DHT22;6503;48.572;13.460;2022-11-06T11:11:20;12.70;99.90
12870;DHT22;6503;48.572;13.460;2022-11-06T11:13:48;12.50;99.90
12870;DHT22;6503;48.572;13.460;2022-11-06T11:16:16;12.40;99.90
12870;DHT22;6503;48.572;13.460;2022-11-06T11:18:44;12.30;99.90
12870;DHT22;6503;48.572;13.460;2022-11-06T11:21:21;12.20;99.90
12870;DHT22;6503;48.572;13.460;2022-11-06T11:26:49;12.00;99.90
12870;DHT22;6503;48.572;13.460;2022-11-06T11:29:21;11.70;99.90
12870;DHT22;6503;48.572;13.460;2022-11-06T11:31:51;11.60;99.90
12870;DHT22;6503;48.572;13.460;2022-11-06T11:34:20;11.60;99.90
12870;DHT22;6503;48.572;13.460;2022-11-06T11:36:53;11.40;99.90
12870;DHT22;6503;48.572;13.460;2022-11-06T11:39:23;11.60;99.90
12870;DHT22;6503;48.572;13.460;2022-11-06T11:41:52;11.80;99.90
12870;DHT22;6503;48.572;13.460;2022-11-06T11:44:19;12.10;99.90
12870;DHT22;6503;48.572;13.460;2022-11-06T11:46:47;12.40;99.90
12870;DHT22;6503;48.572;13.460;2022-11-06T11:49:27;12.50;99.90
12870;DHT22;6503;48.572;13.460;2022-11-06T11:51:55;12.60;99.90
12870;DHT22;6503;48.572;13.460;2022-11-06T11:54:25;12.80;99.90
12870;DHT22;6503;48.572;13.460;2022-11-06T11:56:56;13.10;99.90
12870;DHT22;6503;48.572;13.460;2022-11-06T11:59:25;13.30;99.90
12870;DHT22;6503;48.572;13.460;2022-11-06T12:01:53;13.60;99.90
12870;DHT22;6503;48.572;13.460;2022-11-06T12:04:25;13.80;99.90
12870;DHT22;6503;48.572;13.460;2022-11-06T12:06:58;13.90;99.90
12870;DHT22;6503;48.572;13.460;2022-11-06T12:09:28;13.90;99.90
12870;DHT22;6503;48.572;13.460;2022-11-06T12:11:58;13.90;99.90
12870;DHT22;6503;48.572;13.460;2022-11-06T12:14:29;13.90;99.90
12870;DHT22;6503;48.572;13.460;2022-11-06T12:17:02;14.00;99.90
12870;DHT22;6503;48.572;13.460;2022-11-06T12:19:31;14.00;99.90
12870;DHT22;6503;48.572;13.460;2022-11-06T12:22:04;14.10;99.90
12870;DHT22;6503;48.572;13.460;2022-11-06T12:24:35;14.20;99.90
12870;DHT22;6503;48.572;13.460;2022-11-06T12:27:08;14.30;99.90
12870;DHT22;6503;48.572;13.460;2022-11-06T12:29:40;14.30;99.90
12870;DHT22;6503;48.572;13.460;2022-11-06T12:32:14;14.30;99.90
12870;DHT22;6503;48.572;13.460;2022-11-06T12:34:48;14.20;99.90
12870;DHT22;6503;48.572;13.460;2022-11-06T12:37:21;14.10;99.90
12870;DHT22;6503;48.572;13.460;2022-11-06T12:39:53;14.10;99.90
12870;DHT22;6503;48.572;13.460;2022-11-06T12:42:26;14.00;99.90
12870;DHT22;6503;48.572;13.460;2022-11-06T12:44:53;14.00;99.90
12870;DHT22;6503;48.572;13.460;2022-11-06T12:47:31;14.00;99.90
12870;DHT22;6503;48.572;13.460;2022-11-06T12:50:15;13.80;99.90
12870;DHT22;6503;48.572;13.460;2022-11-06T12:53:05;13.80;99.90
12870;DHT22;6503;48.572;13.460;2022-11-06T12:55:35;13.90;99.90
12870;DHT22;6503;48.572;13.460;2022-11-06T12:58:25;14.00;99.90
12870;DHT22;6503;48.572;13.460;2022-11-06T13:01:01;14.00;99.90
12870;DHT22;6503;48.572;13.460;2022-11-06T13:03:47;14.10;99.90
12870;DHT22;6503;48.572;13.460;2022-11-06T13:06:21;14.20;99.90
12870;DHT22;6503;48.572;13.460;2022-11-06T13:08:56;14.40;99.90
12870;DHT22;6503;48.572;13.460;2022-11-06T13:11:32;14.60;99.90
12870;DHT22;6503;48.572;13.460;2022-11-06T13:14:13;14.50;99.90
12870;DHT22;6503;48.572;13.460;2022-11-06T13:16:48;14.20;99.90
12870;DHT22;6503;48.572;13.460;2022-11-06T13:19:22;14.10;99.90
12870;DHT22;6503;48.572;13.460;2022-11-06T13:22:04;14.10;99.90
12870;DHT22;6503;48.572;13.460;2022-11-06T13:24:35;13.90;99.90
12870;DHT22;6503;48.572;13.460;2022-11-06T13:27:09;13.70;99.90
12870;DHT22;6503;48.572;13.460;2022-11-06T13:29:40;13.40;99.90
12870;DHT22;6503;48.572;13.460;2022-11-06T13:32:13;13.30;99.90
12870;DHT22;6503;48.572;13.460;2022-11-06T13:34:42;13.10;99.90
12870;DHT22;6503;48.572;13.460;2022-11-06T13:37:14;12.90;99.90
12870;DHT22;6503;48.572;13.460;2022-11-06T13:39:45;12.80;99.90
12870;DHT22;6503;48.572;13.460;2022-11-06T13:42:21;12.80;99.90
12870;DHT22;6503;48.572;13.460;2022-11-06T13:44:52;12.60;99.90
12870;DHT22;6503;48.572;13.460;2022-11-06T13:47:24;12.60;99.90
12870;DHT22;6503;48.572;13.460;2022-11-06T13:49:59;12.60;99.90
12870;DHT22;6503;48.572;13.460;2022-11-06T13:52:35;12.50;99.90
12870;DHT22;6503;48.572;13.460;2022-11-06T13:55:09;12.40;99.90
12870;DHT22;6503;48.572;13.460;2022-11-06T13:58:06;12.30;99.90
12870;DHT22;6503;48.572;13.460;2022-11-06T14:00:50;12.30;99.90
12870;DHT22;6503;48.572;13.460;2022-11-06T14:03:44;12.20;99.90
12870;DHT22;6503;48.572;13.460;2022-11-06T14:06:15;12.10;99.90
12870;DHT22;6503;48.572;13.460;2022-11-06T14:08:46;12.20;99.90
12870;DHT22;6503;48.572;13.460;2022-11-06T14:11:16;12.10;99.90
12870;DHT22;6503;48.572;13.460;2022-11-06T14:13:56;12.10;99.90
12870;DHT22;6503;48.572;13.460;2022-11-06T14:16:28;12.00;99.90
12870;DHT22;6503;48.572;13.460;2022-11-06T14:18:58;12.00;99.90
12870;DHT22;6503;48.572;13.460;2022-11-06T14:21:47;11.90;99.90
12870;DHT22;6503;48.572;13.460;2022-11-06T14:24:29;11.90;99.90
12870;DHT22;6503;48.572;13.460;2022-11-06T14:26:57;11.90;99.90
12870;DHT22;6503;48.572;13.460;2022-11-06T14:32:42;11.70;99.90
12870;DHT22;6503;48.572;13.460;2022-11-06T14:44:38;11.60;99.90
12870;DHT22;6503;48.572;13.460;2022-11-06T14:47:07;11.40;99.90
12870;DHT22;6503;48.572;13.460;2022-11-06T14:49:49;11.30;99.90
12870;DHT22;6503;48.572;13.460;2022-11-06T14:52:17;11.30;99.90
12870;DHT22;6503;48.572;13.460;2022-11-06T14:54:52;11.30;99.90
12870;DHT22;6503;48.572;13.460;2022-11-06T14:57:38;11.30;99.90
12870;DHT22;6503;48.572;13.460;2022-11-06T15:00:12;11.20;99.90
12870;DHT22;6503;48.572;13.460;2022-11-06T15:02:40;11.20;99.90
12870;DHT22;6503;48.572;13.460;2022-11-06T15:05:14;11.00;99.90
12870;DHT22;6503;48.572;13.460;2022-11-06T15:07:56;11.00;99.90
12870;DHT22;6503;48.572;13.460;2022-11-06T15:10:46;10.90;99.90
12870;DHT22;6503;48.572;13.460;2022-11-06T15:13:26;10.90;99.90
12870;DHT22;6503;48.572;13.460;2022-11-06T15:15:57;10.80;99.90
12870;DHT22;6503;48.572;13.460;2022-11-06T15:18:28;10.70;99.90
12870;DHT22;6503;48.572;13.460;2022-11-06T15:21:07;10.70;99.90
12870;DHT22;6503;48.572;13.460;2022-11-06T15:23:40;10.70;99.90
12870;DHT22;6503;48.572;13.460;2022-11-06T15:26:16;10.50;99.90
12870;DHT22;6503;48.572;13.460;2022-11-06T15:28:48;10.40;99.90
12870;DHT22;6503;48.572;13.460;2022-11-06T15:31:17;10.40;99.90
12870;DHT22;6503;48.572;13.460;2022-11-06T15:33:53;10.40;99.90
12870;DHT22;6503;48.572;13.460;2022-11-06T15:36:22;10.40;99.90
12870;DHT22;6503;48.572;13.460;2022-11-06T15:38:51;10.30;99.90
12870;DHT22;6503;48.572;13.460;2022-11-06T15:41:22;10.10;99.90
12870;DHT22;6503;48.572;13.460;2022-11-06T15:43:51;10.00;99.90
12870;DHT22;6503;48.572;13.460;2022-11-06T15:46:22;10.00;99.90
12870;DHT22;6503;48.572;13.460;2022-11-06T15:49:05;9.90;99.90
12870;DHT22;6503;48.572;13.460;2022-11-06T15:51:38;9.80;99.90
12870;DHT22;6503;48.572;13.460;2022-11-06T15:54:09;9.70;99.90
12870;DHT22;6503;48.572;13.460;2022-11-06T15:56:38;9.50;99.90
12870;DHT22;6503;48.572;13.460;2022-11-06T15:59:11;9.30;99.90
12870;DHT22;6503;48.572;13.460;2022-11-06T16:01:38;9.20;99.90
12870;DHT22;6503;48.572;13.460;2022-11-06T16:04:10;9.20;99.90
12870;DHT22;6503;48.572;13.460;2022-11-06T16:06:39;9.00;99.90
12870;DHT22;6503;48.572;13.460;2022-11-06T16:09:14;8.90;99.90
12870;DHT22;6503;48.572;13.460;2022-11-06T16:11:44;8.90;99.90
12870;DHT22;6503;48.572;13.460;2022-11-06T16:14:12;8.80;99.90
12870;DHT22;6503;48.572;13.460;2022-11-06T16:16:41;8.80;99.90
12870;DHT22;6503;48.572;13.460;2022-11-06T16:19:20;8.70;99.90
12870;DHT22;6503;48.572;13.460;2022-11-06T16:21:53;8.60;99.90